sensor_id;sensor_type;location;lat;lon;timestamp;P1;durP1;ratioP1;P2;durP2;ratioP2
1378;SDS011;683;48.738;9.226;2022-07-23T00:01:33;8.23;;;7.43;;
1378;SDS011;683;48.738;9.226;2022-07-23T00:04:03;8.60;;;7.90;;
1378;SDS011;683;48.738;9.226;2022-07-23T00:06:33;8.70;;;7.87;;
1378;SDS011;683;48.738;9.226;2022-07-23T00:09:01;10.57;;;8.17;;
1378;SDS011;683;48.738;9.226;2022-07-23T00:11:35;6.90;;;6.40;;
1378;SDS011;683;48.738;9.226;2022-07-23T00:14:03;8.07;;;6.50;;
1378;SDS011;683;48.738;9.226;2022-07-23T00:16:30;7.03;;;4.80;;
1378;SDS011;683;48.738;9.226;2022-07-23T00:18:57;4.70;;;4.37;;
1378;SDS011;683;48.738;9.226;2022-07-23T00:21:28;5.80;;;5.30;;
1378;SDS011;683;48.738;9.226;2022-07-23T00:23:55;5.33;;;4.93;;
1378;SDS011;683;48.738;9.226;2022-07-23T00:26:22;5.50;;;5.00;;
1378;SDS011;683;48.738;9.226;2022-07-23T00:28:50;5.73;;;4.90;;
1378;SDS011;683;48.738;9.226;2022-07-23T00:31:17;5.80;;;5.20;;
1378;SDS011;683;48.738;9.226;2022-07-23T00:33:44;5.97;;;5.50;;
1378;SDS011;683;48.738;9.226;2022-07-23T00:36:12;5.20;;;4.70;;
1378;SDS011;683;48.738;9.226;2022-07-23T00:38:41;4.70;;;4.33;;
1378;SDS011;683;48.738;9.226;2022-07-23T00:41:09;5.97;;;5.47;;
1378;SDS011;683;48.738;9.226;2022-07-23T00:43:36;6.63;;;5.40;;
1378;SDS011;683;48.738;9.226;2022-07-23T00:46:03;6.00;;;5.60;;
1378;SDS011;683;48.738;9.226;2022-07-23T00:48:31;6.53;;;5.87;;
1378;SDS011;683;48.738;9.226;2022-07-23T00:50:58;6.07;;;5.57;;
1378;SDS011;683;48.738;9.226;2022-07-23T00:53:26;5.57;;;5.10;;
1378;SDS011;683;48.738;9.226;2022-07-23T00:55:56;6.03;;;4.83;;
1378;SDS011;683;48.738;9.226;2022-07-23T01:01:18;8.67;;;4.60;;
1378;SDS011;683;48.738;9.226;2022-07-23T01:03:45;6.33;;;5.80;;
1378;SDS011;683;48.738;9.226;2022-07-23T01:06:12;5.47;;;5.07;;
1378;SDS011;683;48.738;9.226;2022-07-23T01:08:40;5.23;;;4.83;;
1378;SDS011;683;48.738;9.226;2022-07-23T01:11:10;4.60;;;4.30;;
1378;SDS011;683;48.738;9.226;2022-07-23T01:13:40;5.40;;;5.00;;
1378;SDS011;683;48.738;9.226;2022-07-23T01:16:08;6.00;;;5.40;;
1378;SDS011;683;48.738;9.226;2022-07-23T01:18:36;6.20;;;5.70;;
1378;SDS011;683;48.738;9.226;2022-07-23T01:21:03;5.57;;;5.17;;
1378;SDS011;683;48.738;9.226;2022-07-23T01:23:32;5.30;;;4.80;;
1378;SDS011;683;48.738;9.226;2022-07-23T01:26:00;5.20;;;4.80;;
1378;SDS011;683;48.738;9.226;2022-07-23T01:28:28;6.13;;;5.63;;
1378;SDS011;683;48.738;9.226;2022-07-23T01:30:57;4.90;;;4.50;;
1378;SDS011;683;48.738;9.226;2022-07-23T01:33:28;4.70;;;4.30;;
1378;SDS011;683;48.738;9.226;2022-07-23T01:36:02;4.60;;;4.30;;
1378;SDS011;683;48.738;9.226;2022-07-23T01:41:24;4.80;;;4.40;;
1378;SDS011;683;48.738;9.226;2022-07-23T01:43:52;5.40;;;5.00;;
1378;SDS011;683;48.738;9.226;2022-07-23T01:46:19;7.00;;;5.90;;
1378;SDS011;683;48.738;9.226;2022-07-23T01:48:48;4.90;;;4.50;;
1378;SDS011;683;48.738;9.226;2022-07-23T01:51:42;4.97;;;4.57;;
1378;SDS011;683;48.738;9.226;2022-07-23T01:54:24;5.07;;;4.67;;
1378;SDS011;683;48.738;9.226;2022-07-23T01:56:52;4.93;;;4.53;;
1378;SDS011;683;48.738;9.226;2022-07-23T01:59:19;5.20;;;4.80;;
1378;SDS011;683;48.738;9.226;2022-07-23T02:01:47;6.03;;;5.53;;
1378;SDS011;683;48.738;9.226;2022-07-23T02:04:16;5.33;;;4.93;;
1378;SDS011;683;48.738;9.226;2022-07-23T02:06:45;5.60;;;5.20;;
1378;SDS011;683;48.738;9.226;2022-07-23T02:09:13;5.67;;;5.07;;
1378;SDS011;683;48.738;9.226;2022-07-23T02:11:44;5.73;;;5.33;;
1378;SDS011;683;48.738;9.226;2022-07-23T02:14:12;5.57;;;5.17;;
1378;SDS011;683;48.738;9.226;2022-07-23T02:16:39;5.40;;;5.00;;
1378;SDS011;683;48.738;9.226;2022-07-23T02:19:06;5.43;;;5.03;;
1378;SDS011;683;48.738;9.226;2022-07-23T02:21:36;5.77;;;5.30;;
1378;SDS011;683;48.738;9.226;2022-07-23T02:24:03;6.53;;;5.20;;
1378;SDS011;683;48.738;9.226;2022-07-23T02:26:33;5.20;;;4.80;;
1378;SDS011;683;48.738;9.226;2022-07-23T02:29:07;5.10;;;4.70;;
1378;SDS011;683;48.738;9.226;2022-07-23T02:31:35;5.60;;;5.10;;
1378;SDS011;683;48.738;9.226;2022-07-23T02:34:03;5.73;;;5.33;;
1378;SDS011;683;48.738;9.226;2022-07-23T02:36:31;5.27;;;4.80;;
1378;SDS011;683;48.738;9.226;2022-07-23T02:38:58;5.50;;;5.10;;
1378;SDS011;683;48.738;9.226;2022-07-23T02:41:29;5.50;;;5.10;;
1378;SDS011;683;48.738;9.226;2022-07-23T02:43:56;5.60;;;5.20;;
1378;SDS011;683;48.738;9.226;2022-07-23T02:46:25;5.63;;;5.13;;
1378;SDS011;683;48.738;9.226;2022-07-23T02:48:53;7.10;;;6.50;;
1378;SDS011;683;48.738;9.226;2022-07-23T02:51:23;5.73;;;5.33;;
1378;SDS011;683;48.738;9.226;2022-07-23T02:53:55;5.80;;;5.30;;
1378;SDS011;683;48.738;9.226;2022-07-23T02:56:22;5.83;;;5.43;;
1378;SDS011;683;48.738;9.226;2022-07-23T02:58:50;5.70;;;5.30;;
1378;SDS011;683;48.738;9.226;2022-07-23T03:01:21;5.43;;;4.97;;
1378;SDS011;683;48.738;9.226;2022-07-23T03:03:50;5.20;;;4.80;;
1378;SDS011;683;48.738;9.226;2022-07-23T03:06:20;5.97;;;5.43;;
1378;SDS011;683;48.738;9.226;2022-07-23T03:08:49;5.50;;;5.10;;
1378;SDS011;683;48.738;9.226;2022-07-23T03:11:16;6.30;;;5.80;;
1378;SDS011;683;48.738;9.226;2022-07-23T03:13:45;6.50;;;6.00;;
1378;SDS011;683;48.738;9.226;2022-07-23T03:16:15;5.80;;;5.40;;
1378;SDS011;683;48.738;9.226;2022-07-23T03:18:43;6.67;;;6.10;;
1378;SDS011;683;48.738;9.226;2022-07-23T03:21:11;8.80;;;5.97;;
1378;SDS011;683;48.738;9.226;2022-07-23T03:23:39;5.60;;;5.20;;
1378;SDS011;683;48.738;9.226;2022-07-23T03:26:13;6.50;;;5.97;;
1378;SDS011;683;48.738;9.226;2022-07-23T03:28:40;6.20;;;5.60;;
1378;SDS011;683;48.738;9.226;2022-07-23T03:31:07;6.43;;;5.97;;
1378;SDS011;683;48.738;9.226;2022-07-23T03:33:36;6.70;;;5.57;;
1378;SDS011;683;48.738;9.226;2022-07-23T03:36:04;5.90;;;5.30;;
1378;SDS011;683;48.738;9.226;2022-07-23T03:38:39;7.10;;;6.50;;
1378;SDS011;683;48.738;9.226;2022-07-23T03:41:31;5.70;;;5.20;;
1378;SDS011;683;48.738;9.226;2022-07-23T03:44:10;6.80;;;6.27;;
1378;SDS011;683;48.738;9.226;2022-07-23T03:46:37;5.77;;;5.37;;
1378;SDS011;683;48.738;9.226;2022-07-23T03:49:05;7.20;;;6.60;;
1378;SDS011;683;48.738;9.226;2022-07-23T03:51:33;6.77;;;6.13;;
1378;SDS011;683;48.738;9.226;2022-07-23T03:54:02;6.30;;;5.83;;
1378;SDS011;683;48.738;9.226;2022-07-23T03:56:30;7.57;;;6.83;;
1378;SDS011;683;48.738;9.226;2022-07-23T03:58:58;7.13;;;6.47;;
1378;SDS011;683;48.738;9.226;2022-07-23T04:01:26;7.03;;;6.43;;
1378;SDS011;683;48.738;9.226;2022-07-23T04:03:54;6.97;;;6.40;;
1378;SDS011;683;48.738;9.226;2022-07-23T04:06:21;6.23;;;5.73;;
1378;SDS011;683;48.738;9.226;2022-07-23T04:09:05;6.90;;;6.30;;
1378;SDS011;683;48.738;9.226;2022-07-23T04:11:32;7.43;;;6.83;;
1378;SDS011;683;48.738;9.226;2022-07-23T04:14:00;7.10;;;6.53;;
1378;SDS011;683;48.738;9.226;2022-07-23T04:16:29;6.40;;;5.90;;
1378;SDS011;683;48.738;9.226;2022-07-23T04:19:01;6.67;;;6.17;;
1378;SDS011;683;48.738;9.226;2022-07-23T04:21:34;6.17;;;5.67;;
1378;SDS011;683;48.738;9.226;2022-07-23T04:24:24;5.63;;;5.20;;
1378;SDS011;683;48.738;9.226;2022-07-23T04:26:52;6.93;;;6.43;;
1378;SDS011;683;48.738;9.226;2022-07-23T04:29:19;6.87;;;6.27;;
1378;SDS011;683;48.738;9.226;2022-07-23T04:31:47;7.07;;;6.47;;
1378;SDS011;683;48.738;9.226;2022-07-23T04:34:14;7.43;;;6.83;;
1378;SDS011;683;48.738;9.226;2022-07-23T04:36:42;7.07;;;6.37;;
1378;SDS011;683;48.738;9.226;2022-07-23T04:39:20;7.27;;;6.67;;
1378;SDS011;683;48.738;9.226;2022-07-23T04:41:47;6.77;;;6.20;;
1378;SDS011;683;48.738;9.226;2022-07-23T04:44:14;6.70;;;6.10;;
1378;SDS011;683;48.738;9.226;2022-07-23T04:46:42;6.30;;;5.80;;
1378;SDS011;683;48.738;9.226;2022-07-23T04:49:09;6.33;;;5.83;;
1378;SDS011;683;48.738;9.226;2022-07-23T04:51:37;7.23;;;6.63;;
1378;SDS011;683;48.738;9.226;2022-07-23T04:54:05;8.93;;;6.13;;
1378;SDS011;683;48.738;9.226;2022-07-23T04:56:34;6.87;;;6.23;;
1378;SDS011;683;48.738;9.226;2022-07-23T04:59:02;7.00;;;6.33;;
1378;SDS011;683;48.738;9.226;2022-07-23T05:01:29;6.53;;;5.93;;
1378;SDS011;683;48.738;9.226;2022-07-23T05:03:56;6.17;;;5.67;;
1378;SDS011;683;48.738;9.226;2022-07-23T05:06:29;6.80;;;6.30;;
1378;SDS011;683;48.738;9.226;2022-07-23T05:09:04;7.07;;;6.37;;
1378;SDS011;683;48.738;9.226;2022-07-23T05:11:35;7.47;;;6.73;;
1378;SDS011;683;48.738;9.226;2022-07-23T05:14:02;7.37;;;6.77;;
1378;SDS011;683;48.738;9.226;2022-07-23T05:16:30;6.87;;;6.37;;
1378;SDS011;683;48.738;9.226;2022-07-23T05:19:02;7.13;;;6.53;;
1378;SDS011;683;48.738;9.226;2022-07-23T05:21:31;6.80;;;6.30;;
1378;SDS011;683;48.738;9.226;2022-07-23T05:23:59;6.70;;;6.00;;
1378;SDS011;683;48.738;9.226;2022-07-23T05:26:26;7.40;;;6.70;;
1378;SDS011;683;48.738;9.226;2022-07-23T05:28:55;8.40;;;7.50;;
1378;SDS011;683;48.738;9.226;2022-07-23T05:31:23;7.73;;;7.03;;
1378;SDS011;683;48.738;9.226;2022-07-23T05:33:50;7.17;;;6.57;;
1378;SDS011;683;48.738;9.226;2022-07-23T05:36:17;7.53;;;6.90;;
1378;SDS011;683;48.738;9.226;2022-07-23T05:38:56;7.83;;;7.17;;
1378;SDS011;683;48.738;9.226;2022-07-23T05:41:26;8.20;;;7.50;;
1378;SDS011;683;48.738;9.226;2022-07-23T05:43:54;8.43;;;7.63;;
1378;SDS011;683;48.738;9.226;2022-07-23T05:46:23;7.63;;;7.03;;
1378;SDS011;683;48.738;9.226;2022-07-23T05:48:55;7.70;;;6.77;;
1378;SDS011;683;48.738;9.226;2022-07-23T05:51:52;9.70;;;7.30;;
1378;SDS011;683;48.738;9.226;2022-07-23T05:54:29;7.30;;;6.70;;
1378;SDS011;683;48.738;9.226;2022-07-23T05:56:56;8.80;;;8.20;;
1378;SDS011;683;48.738;9.226;2022-07-23T06:02:18;8.10;;;7.13;;
1378;SDS011;683;48.738;9.226;2022-07-23T06:04:46;7.23;;;6.73;;
1378;SDS011;683;48.738;9.226;2022-07-23T06:07:25;8.20;;;7.50;;
1378;SDS011;683;48.738;9.226;2022-07-23T06:09:53;8.07;;;7.37;;
1378;SDS011;683;48.738;9.226;2022-07-23T06:12:20;7.80;;;7.07;;
1378;SDS011;683;48.738;9.226;2022-07-23T06:14:48;7.80;;;7.00;;
1378;SDS011;683;48.738;9.226;2022-07-23T06:17:18;8.10;;;7.40;;
1378;SDS011;683;48.738;9.226;2022-07-23T06:19:46;7.67;;;7.03;;
1378;SDS011;683;48.738;9.226;2022-07-23T06:22:15;7.70;;;7.10;;
1378;SDS011;683;48.738;9.226;2022-07-23T06:24:42;11.20;;;8.00;;
1378;SDS011;683;48.738;9.226;2022-07-23T06:27:09;7.73;;;6.80;;
1378;SDS011;683;48.738;9.226;2022-07-23T06:29:37;8.20;;;7.47;;
1378;SDS011;683;48.738;9.226;2022-07-23T06:32:06;7.93;;;7.23;;
1378;SDS011;683;48.738;9.226;2022-07-23T06:34:35;8.53;;;7.83;;
1378;SDS011;683;48.738;9.226;2022-07-23T06:37:05;8.63;;;7.83;;
1378;SDS011;683;48.738;9.226;2022-07-23T06:39:33;8.70;;;7.90;;
1378;SDS011;683;48.738;9.226;2022-07-23T06:42:00;8.10;;;7.40;;
1378;SDS011;683;48.738;9.226;2022-07-23T06:44:43;8.53;;;7.80;;
1378;SDS011;683;48.738;9.226;2022-07-23T06:47:10;8.37;;;7.57;;
1378;SDS011;683;48.738;9.226;2022-07-23T06:49:40;8.17;;;7.57;;
1378;SDS011;683;48.738;9.226;2022-07-23T06:52:08;7.40;;;6.90;;
1378;SDS011;683;48.738;9.226;2022-07-23T06:54:36;7.93;;;7.30;;
1378;SDS011;683;48.738;9.226;2022-07-23T06:57:03;7.20;;;6.60;;
1378;SDS011;683;48.738;9.226;2022-07-23T06:59:30;7.93;;;7.33;;
1378;SDS011;683;48.738;9.226;2022-07-23T07:01:59;8.60;;;7.83;;
1378;SDS011;683;48.738;9.226;2022-07-23T07:04:26;7.83;;;7.13;;
1378;SDS011;683;48.738;9.226;2022-07-23T07:06:55;7.73;;;7.23;;
1378;SDS011;683;48.738;9.226;2022-07-23T07:09:22;7.73;;;7.13;;
1378;SDS011;683;48.738;9.226;2022-07-23T07:11:50;7.40;;;6.80;;
1378;SDS011;683;48.738;9.226;2022-07-23T07:14:27;7.33;;;6.70;;
1378;SDS011;683;48.738;9.226;2022-07-23T07:16:54;7.87;;;7.27;;
1378;SDS011;683;48.738;9.226;2022-07-23T07:19:22;8.40;;;7.70;;
1378;SDS011;683;48.738;9.226;2022-07-23T07:21:49;8.47;;;7.77;;
1378;SDS011;683;48.738;9.226;2022-07-23T07:24:18;8.23;;;7.43;;
1378;SDS011;683;48.738;9.226;2022-07-23T07:26:45;9.10;;;7.57;;
1378;SDS011;683;48.738;9.226;2022-07-23T07:32:16;7.37;;;6.67;;
1378;SDS011;683;48.738;9.226;2022-07-23T07:34:43;7.83;;;7.20;;
1378;SDS011;683;48.738;9.226;2022-07-23T07:37:10;7.43;;;6.83;;
1378;SDS011;683;48.738;9.226;2022-07-23T07:39:39;7.27;;;6.70;;
1378;SDS011;683;48.738;9.226;2022-07-23T07:42:07;7.33;;;6.73;;
1378;SDS011;683;48.738;9.226;2022-07-23T07:44:34;8.13;;;7.33;;
1378;SDS011;683;48.738;9.226;2022-07-23T07:47:01;7.10;;;6.60;;
1378;SDS011;683;48.738;9.226;2022-07-23T07:49:29;8.70;;;7.73;;
1378;SDS011;683;48.738;9.226;2022-07-23T07:52:00;7.33;;;6.80;;
1378;SDS011;683;48.738;9.226;2022-07-23T07:54:27;10.07;;;8.70;;
1378;SDS011;683;48.738;9.226;2022-07-23T07:56:56;8.70;;;7.17;;
1378;SDS011;683;48.738;9.226;2022-07-23T07:59:24;8.50;;;7.80;;
1378;SDS011;683;48.738;9.226;2022-07-23T08:01:51;8.83;;;7.87;;
1378;SDS011;683;48.738;9.226;2022-07-23T08:04:18;7.73;;;7.10;;
1378;SDS011;683;48.738;9.226;2022-07-23T08:06:46;8.53;;;7.83;;
1378;SDS011;683;48.738;9.226;2022-07-23T08:09:13;9.07;;;8.17;;
1378;SDS011;683;48.738;9.226;2022-07-23T08:11:42;8.30;;;7.50;;
1378;SDS011;683;48.738;9.226;2022-07-23T08:14:10;8.27;;;7.57;;
1378;SDS011;683;48.738;9.226;2022-07-23T08:16:38;7.47;;;6.80;;
1378;SDS011;683;48.738;9.226;2022-07-23T08:19:05;6.77;;;6.27;;
1378;SDS011;683;48.738;9.226;2022-07-23T08:21:33;8.57;;;7.77;;
1378;SDS011;683;48.738;9.226;2022-07-23T08:24:00;7.43;;;6.70;;
1378;SDS011;683;48.738;9.226;2022-07-23T08:26:27;7.70;;;7.00;;
1378;SDS011;683;48.738;9.226;2022-07-23T08:28:55;20.37;;;18.37;;
1378;SDS011;683;48.738;9.226;2022-07-23T08:31:23;9.10;;;8.40;;
1378;SDS011;683;48.738;9.226;2022-07-23T08:33:59;7.63;;;7.03;;
1378;SDS011;683;48.738;9.226;2022-07-23T08:36:27;8.13;;;7.43;;
1378;SDS011;683;48.738;9.226;2022-07-23T08:39:22;8.53;;;7.60;;
1378;SDS011;683;48.738;9.226;2022-07-23T08:41:49;8.83;;;7.60;;
1378;SDS011;683;48.738;9.226;2022-07-23T08:44:17;7.37;;;6.77;;
1378;SDS011;683;48.738;9.226;2022-07-23T08:46:45;7.20;;;6.60;;
1378;SDS011;683;48.738;9.226;2022-07-23T08:49:14;7.20;;;6.50;;
1378;SDS011;683;48.738;9.226;2022-07-23T08:51:41;9.73;;;7.40;;
1378;SDS011;683;48.738;9.226;2022-07-23T08:54:09;8.23;;;7.53;;
1378;SDS011;683;48.738;9.226;2022-07-23T08:56:36;6.63;;;6.13;;
1378;SDS011;683;48.738;9.226;2022-07-23T08:59:04;10.10;;;7.10;;
1378;SDS011;683;48.738;9.226;2022-07-23T09:01:31;7.33;;;6.73;;
1378;SDS011;683;48.738;9.226;2022-07-23T09:04:00;6.73;;;6.30;;
1378;SDS011;683;48.738;9.226;2022-07-23T09:06:28;7.60;;;6.87;;
1378;SDS011;683;48.738;9.226;2022-07-23T09:08:56;7.23;;;6.73;;
1378;SDS011;683;48.738;9.226;2022-07-23T09:11:23;7.47;;;6.87;;
1378;SDS011;683;48.738;9.226;2022-07-23T09:17:07;7.13;;;6.63;;
1378;SDS011;683;48.738;9.226;2022-07-23T09:19:41;7.80;;;6.93;;
1378;SDS011;683;48.738;9.226;2022-07-23T09:22:16;8.07;;;7.30;;
1378;SDS011;683;48.738;9.226;2022-07-23T09:25:11;6.57;;;6.10;;
1378;SDS011;683;48.738;9.226;2022-07-23T09:27:53;8.33;;;7.63;;
1378;SDS011;683;48.738;9.226;2022-07-23T09:30:23;6.47;;;5.90;;
1378;SDS011;683;48.738;9.226;2022-07-23T09:33:05;6.93;;;6.33;;
1378;SDS011;683;48.738;9.226;2022-07-23T09:35:48;7.10;;;6.50;;
1378;SDS011;683;48.738;9.226;2022-07-23T09:38:17;7.20;;;6.70;;
1378;SDS011;683;48.738;9.226;2022-07-23T09:40:46;7.40;;;6.83;;
1378;SDS011;683;48.738;9.226;2022-07-23T09:43:33;6.60;;;6.10;;
1378;SDS011;683;48.738;9.226;2022-07-23T09:46:17;7.60;;;7.00;;
1378;SDS011;683;48.738;9.226;2022-07-23T09:48:45;7.03;;;6.47;;
1378;SDS011;683;48.738;9.226;2022-07-23T09:51:14;8.30;;;7.50;;
1378;SDS011;683;48.738;9.226;2022-07-23T09:53:43;7.33;;;6.73;;
1378;SDS011;683;48.738;9.226;2022-07-23T09:56:11;7.07;;;6.47;;
1378;SDS011;683;48.738;9.226;2022-07-23T09:58:41;6.97;;;6.50;;
1378;SDS011;683;48.738;9.226;2022-07-23T10:01:15;9.57;;;6.80;;
1378;SDS011;683;48.738;9.226;2022-07-23T10:03:42;8.17;;;7.47;;
1378;SDS011;683;48.738;9.226;2022-07-23T10:06:37;7.23;;;6.73;;
1378;SDS011;683;48.738;9.226;2022-07-23T10:09:29;7.63;;;7.13;;
1378;SDS011;683;48.738;9.226;2022-07-23T10:12:16;8.40;;;7.60;;
1378;SDS011;683;48.738;9.226;2022-07-23T10:14:59;8.03;;;7.30;;
1378;SDS011;683;48.738;9.226;2022-07-23T10:17:27;7.37;;;6.87;;
1378;SDS011;683;48.738;9.226;2022-07-23T10:19:55;7.67;;;7.07;;
1378;SDS011;683;48.738;9.226;2022-07-23T10:22:26;9.30;;;7.00;;
1378;SDS011;683;48.738;9.226;2022-07-23T10:24:59;7.03;;;6.43;;
1378;SDS011;683;48.738;9.226;2022-07-23T10:30:35;7.50;;;7.00;;
1378;SDS011;683;48.738;9.226;2022-07-23T10:33:17;8.23;;;7.63;;
1378;SDS011;683;48.738;9.226;2022-07-23T10:35:56;7.70;;;7.10;;
1378;SDS011;683;48.738;9.226;2022-07-23T10:38:37;7.77;;;7.17;;
1378;SDS011;683;48.738;9.226;2022-07-23T10:41:17;7.60;;;7.10;;
1378;SDS011;683;48.738;9.226;2022-07-23T10:44:07;7.67;;;7.17;;
1378;SDS011;683;48.738;9.226;2022-07-23T10:46:36;7.30;;;6.80;;
1378;SDS011;683;48.738;9.226;2022-07-23T10:49:32;7.87;;;7.27;;
1378;SDS011;683;48.738;9.226;2022-07-23T10:52:25;7.67;;;7.00;;
1378;SDS011;683;48.738;9.226;2022-07-23T10:54:55;7.20;;;6.70;;
1378;SDS011;683;48.738;9.226;2022-07-23T10:57:49;7.60;;;7.10;;
1378;SDS011;683;48.738;9.226;2022-07-23T11:00:22;7.60;;;7.10;;
1378;SDS011;683;48.738;9.226;2022-07-23T11:03:00;7.27;;;6.67;;
1378;SDS011;683;48.738;9.226;2022-07-23T11:05:42;8.40;;;7.80;;
1378;SDS011;683;48.738;9.226;2022-07-23T11:08:14;6.83;;;6.37;;
1378;SDS011;683;48.738;9.226;2022-07-23T11:10:45;6.57;;;6.13;;
1378;SDS011;683;48.738;9.226;2022-07-23T11:13:27;6.53;;;6.13;;
1378;SDS011;683;48.738;9.226;2022-07-23T11:16:03;6.90;;;6.50;;
1378;SDS011;683;48.738;9.226;2022-07-23T11:18:53;7.70;;;7.10;;
1378;SDS011;683;48.738;9.226;2022-07-23T11:21:41;7.03;;;6.43;;
1378;SDS011;683;48.738;9.226;2022-07-23T11:24:10;7.00;;;6.30;;
1378;SDS011;683;48.738;9.226;2022-07-23T11:26:47;6.83;;;6.23;;
1378;SDS011;683;48.738;9.226;2022-07-23T11:32:17;7.87;;;7.27;;
1378;SDS011;683;48.738;9.226;2022-07-23T11:34:51;7.70;;;7.00;;
1378;SDS011;683;48.738;9.226;2022-07-23T11:37:33;7.30;;;6.80;;
1378;SDS011;683;48.738;9.226;2022-07-23T11:40:03;7.70;;;7.00;;
1378;SDS011;683;48.738;9.226;2022-07-23T11:42:35;6.97;;;6.37;;
1378;SDS011;683;48.738;9.226;2022-07-23T11:45:05;7.77;;;7.27;;
1378;SDS011;683;48.738;9.226;2022-07-23T11:47:34;7.10;;;6.60;;
1378;SDS011;683;48.738;9.226;2022-07-23T11:50:03;6.60;;;6.20;;
1378;SDS011;683;48.738;9.226;2022-07-23T11:52:36;8.00;;;7.40;;
1378;SDS011;683;48.738;9.226;2022-07-23T11:55:09;7.70;;;7.10;;
1378;SDS011;683;48.738;9.226;2022-07-23T11:57:44;7.63;;;7.00;;
1378;SDS011;683;48.738;9.226;2022-07-23T12:00:13;7.40;;;6.87;;
1378;SDS011;683;48.738;9.226;2022-07-23T12:02:43;8.07;;;7.43;;
1378;SDS011;683;48.738;9.226;2022-07-23T12:05:12;9.90;;;8.90;;
1378;SDS011;683;48.738;9.226;2022-07-23T12:07:42;9.33;;;8.53;;
1378;SDS011;683;48.738;9.226;2022-07-23T12:10:11;7.43;;;6.93;;
1378;SDS011;683;48.738;9.226;2022-07-23T12:12:41;8.33;;;7.73;;
1378;SDS011;683;48.738;9.226;2022-07-23T12:15:12;7.33;;;6.83;;
1378;SDS011;683;48.738;9.226;2022-07-23T12:20:34;7.43;;;6.93;;
1378;SDS011;683;48.738;9.226;2022-07-23T12:23:09;7.83;;;7.33;;
1378;SDS011;683;48.738;9.226;2022-07-23T12:25:38;8.63;;;7.17;;
1378;SDS011;683;48.738;9.226;2022-07-23T12:28:09;7.47;;;6.87;;
1378;SDS011;683;48.738;9.226;2022-07-23T12:30:39;8.13;;;7.43;;
1378;SDS011;683;48.738;9.226;2022-07-23T12:33:08;9.40;;;8.80;;
1378;SDS011;683;48.738;9.226;2022-07-23T12:35:42;8.60;;;8.00;;
1378;SDS011;683;48.738;9.226;2022-07-23T12:41:04;8.40;;;7.80;;
1378;SDS011;683;48.738;9.226;2022-07-23T12:43:32;7.90;;;7.30;;
1378;SDS011;683;48.738;9.226;2022-07-23T12:48:50;8.40;;;7.70;;
1378;SDS011;683;48.738;9.226;2022-07-23T12:51:23;8.20;;;7.50;;
1378;SDS011;683;48.738;9.226;2022-07-23T12:54:05;8.37;;;7.83;;
1378;SDS011;683;48.738;9.226;2022-07-23T12:56:35;7.53;;;6.97;;
1378;SDS011;683;48.738;9.226;2022-07-23T12:59:05;7.23;;;6.73;;
1378;SDS011;683;48.738;9.226;2022-07-23T13:01:37;7.90;;;7.20;;
1378;SDS011;683;48.738;9.226;2022-07-23T13:04:05;7.70;;;7.10;;
1378;SDS011;683;48.738;9.226;2022-07-23T13:06:43;7.97;;;7.47;;
1378;SDS011;683;48.738;9.226;2022-07-23T13:09:13;7.60;;;7.00;;
1378;SDS011;683;48.738;9.226;2022-07-23T13:11:42;7.77;;;7.17;;
1378;SDS011;683;48.738;9.226;2022-07-23T13:14:11;7.20;;;6.67;;
1378;SDS011;683;48.738;9.226;2022-07-23T13:16:40;8.40;;;7.80;;
1378;SDS011;683;48.738;9.226;2022-07-23T13:19:28;7.73;;;7.20;;
1378;SDS011;683;48.738;9.226;2022-07-23T13:21:55;8.47;;;7.87;;
1378;SDS011;683;48.738;9.226;2022-07-23T13:24:22;8.13;;;7.50;;
1378;SDS011;683;48.738;9.226;2022-07-23T13:26:49;7.97;;;7.37;;
1378;SDS011;683;48.738;9.226;2022-07-23T13:29:17;8.23;;;7.60;;
1378;SDS011;683;48.738;9.226;2022-07-23T13:31:46;8.30;;;7.70;;
1378;SDS011;683;48.738;9.226;2022-07-23T13:34:14;8.03;;;7.53;;
1378;SDS011;683;48.738;9.226;2022-07-23T13:37:16;7.47;;;6.97;;
1378;SDS011;683;48.738;9.226;2022-07-23T13:39:44;8.27;;;7.57;;
1378;SDS011;683;48.738;9.226;2022-07-23T13:42:11;8.13;;;7.47;;
1378;SDS011;683;48.738;9.226;2022-07-23T13:44:39;8.33;;;7.73;;
1378;SDS011;683;48.738;9.226;2022-07-23T13:47:07;7.33;;;6.83;;
1378;SDS011;683;48.738;9.226;2022-07-23T13:49:36;8.03;;;7.50;;
1378;SDS011;683;48.738;9.226;2022-07-23T13:52:14;8.20;;;7.60;;
1378;SDS011;683;48.738;9.226;2022-07-23T13:54:41;7.87;;;7.37;;
1378;SDS011;683;48.738;9.226;2022-07-23T13:57:09;8.07;;;7.57;;
1378;SDS011;683;48.738;9.226;2022-07-23T13:59:36;7.73;;;7.13;;
1378;SDS011;683;48.738;9.226;2022-07-23T14:02:04;9.97;;;8.43;;
1378;SDS011;683;48.738;9.226;2022-07-23T14:04:33;8.03;;;7.43;;
1378;SDS011;683;48.738;9.226;2022-07-23T14:07:01;7.03;;;6.43;;
1378;SDS011;683;48.738;9.226;2022-07-23T14:09:28;7.77;;;7.27;;
1378;SDS011;683;48.738;9.226;2022-07-23T14:11:59;8.03;;;7.33;;
1378;SDS011;683;48.738;9.226;2022-07-23T14:17:22;8.27;;;7.67;;
1378;SDS011;683;48.738;9.226;2022-07-23T14:19:51;7.50;;;7.10;;
1378;SDS011;683;48.738;9.226;2022-07-23T14:22:19;8.30;;;7.70;;
1378;SDS011;683;48.738;9.226;2022-07-23T14:24:47;9.07;;;8.37;;
1378;SDS011;683;48.738;9.226;2022-07-23T14:27:14;8.07;;;7.37;;
1378;SDS011;683;48.738;9.226;2022-07-23T14:29:42;8.50;;;7.80;;
1378;SDS011;683;48.738;9.226;2022-07-23T14:32:10;8.33;;;7.70;;
1378;SDS011;683;48.738;9.226;2022-07-23T14:34:37;9.10;;;8.50;;
1378;SDS011;683;48.738;9.226;2022-07-23T14:37:06;8.60;;;8.00;;
1378;SDS011;683;48.738;9.226;2022-07-23T14:39:33;8.03;;;7.53;;
1378;SDS011;683;48.738;9.226;2022-07-23T14:42:02;8.27;;;7.67;;
1378;SDS011;683;48.738;9.226;2022-07-23T14:44:30;8.43;;;7.83;;
1378;SDS011;683;48.738;9.226;2022-07-23T14:46:58;8.13;;;7.63;;
1378;SDS011;683;48.738;9.226;2022-07-23T14:49:26;8.03;;;7.23;;
1378;SDS011;683;48.738;9.226;2022-07-23T14:51:53;9.30;;;8.50;;
1378;SDS011;683;48.738;9.226;2022-07-23T14:54:22;8.17;;;7.57;;
1378;SDS011;683;48.738;9.226;2022-07-23T14:59:43;9.47;;;8.57;;
1378;SDS011;683;48.738;9.226;2022-07-23T15:02:11;9.10;;;8.30;;
1378;SDS011;683;48.738;9.226;2022-07-23T15:04:38;8.20;;;7.60;;
1378;SDS011;683;48.738;9.226;2022-07-23T15:07:05;8.10;;;7.60;;
1378;SDS011;683;48.738;9.226;2022-07-23T15:09:34;8.00;;;7.40;;
1378;SDS011;683;48.738;9.226;2022-07-23T15:12:02;7.73;;;7.20;;
1378;SDS011;683;48.738;9.226;2022-07-23T15:14:30;8.00;;;7.40;;
1378;SDS011;683;48.738;9.226;2022-07-23T15:16:57;8.60;;;7.90;;
1378;SDS011;683;48.738;9.226;2022-07-23T15:19:25;8.50;;;7.77;;
1378;SDS011;683;48.738;9.226;2022-07-23T15:21:52;7.93;;;7.33;;
1378;SDS011;683;48.738;9.226;2022-07-23T15:24:19;8.07;;;7.47;;
1378;SDS011;683;48.738;9.226;2022-07-23T15:29:41;8.70;;;8.10;;
1378;SDS011;683;48.738;9.226;2022-07-23T15:32:09;8.63;;;7.60;;
1378;SDS011;683;48.738;9.226;2022-07-23T15:34:36;9.40;;;8.70;;
1378;SDS011;683;48.738;9.226;2022-07-23T15:37:04;7.50;;;7.00;;
1378;SDS011;683;48.738;9.226;2022-07-23T15:39:32;8.73;;;7.97;;
1378;SDS011;683;48.738;9.226;2022-07-23T15:41:59;8.23;;;7.73;;
1378;SDS011;683;48.738;9.226;2022-07-23T15:44:29;8.47;;;7.67;;
1378;SDS011;683;48.738;9.226;2022-07-23T15:46:56;9.43;;;8.47;;
1378;SDS011;683;48.738;9.226;2022-07-23T15:49:24;8.43;;;7.90;;
1378;SDS011;683;48.738;9.226;2022-07-23T15:51:51;8.57;;;7.97;;
1378;SDS011;683;48.738;9.226;2022-07-23T15:54:25;8.57;;;7.70;;
1378;SDS011;683;48.738;9.226;2022-07-23T15:56:52;8.73;;;8.13;;
1378;SDS011;683;48.738;9.226;2022-07-23T15:59:20;8.30;;;7.50;;
1378;SDS011;683;48.738;9.226;2022-07-23T16:01:49;8.50;;;7.90;;
1378;SDS011;683;48.738;9.226;2022-07-23T16:04:16;9.30;;;8.60;;
1378;SDS011;683;48.738;9.226;2022-07-23T16:06:43;9.33;;;8.57;;
1378;SDS011;683;48.738;9.226;2022-07-23T16:09:11;8.50;;;8.00;;
1378;SDS011;683;48.738;9.226;2022-07-23T16:11:47;8.23;;;7.67;;
1378;SDS011;683;48.738;9.226;2022-07-23T16:14:14;8.53;;;7.93;;
1378;SDS011;683;48.738;9.226;2022-07-23T16:16:42;9.50;;;8.80;;
1378;SDS011;683;48.738;9.226;2022-07-23T16:19:11;7.20;;;6.70;;
1378;SDS011;683;48.738;9.226;2022-07-23T16:21:38;9.17;;;8.23;;
1378;SDS011;683;48.738;9.226;2022-07-23T16:26:58;8.77;;;7.93;;
1378;SDS011;683;48.738;9.226;2022-07-23T16:29:26;8.63;;;8.03;;
1378;SDS011;683;48.738;9.226;2022-07-23T16:31:53;9.23;;;8.53;;